Time;durP1;ratioP1;P1;durP2;ratioP2;P2;SDS_P1;SDS_P2;PMS_P1;PMS_P2;Temp;Humidity;BMP_temperature;BMP_pressure;BME280_temperature;BME280_humidity;BME280_pressure;Samples;Min_cycle;Max_cycle;Signal;HPM_P1;HPM_P2
2023/10/28 00:00:17;;;;;;;;;5.00;2.00;;;;;15.69;100.00;99455.13;4973007;28;45231;-66
2023/10/28 00:02:42;;;;;;;;;3.33;1.33;;;;;15.69;100.00;99460.44;4968175;28;45174;-66
2023/10/28 00:05:08;;;;;;;;;3.00;1.00;;;;;15.67;100.00;99452.53;4974848;28;46429;-67
2023/10/28 00:07:33;;;;;;;;;4.00;3.00;;;;;15.70;100.00;99457.72;4972871;28;45391;-66
2023/10/28 00:09:58;;;;;;;;;2.33;1.33;;;;;15.73;100.00;99454.13;4974849;28;63947;-67
2023/10/28 00:12:24;;;;;;;;;6.67;2.00;;;;;15.75;100.00;99444.28;4975688;28;51002;-66
2023/10/28 00:14:50;;;;;;;;;5.00;2.00;;;;;15.77;100.00;99442.47;4975272;28;46466;-66
2023/10/28 00:17:16;;;;;;;;;3.00;3.00;;;;;15.75;100.00;99444.28;4972629;28;45576;-66
2023/10/28 00:19:42;;;;;;;;;3.00;1.00;;;;;15.76;100.00;99446.00;4980032;28;45565;-66
2023/10/28 00:22:07;;;;;;;;;3.67;1.33;;;;;15.77;100.00;99437.13;4968333;28;46075;-65
2023/10/28 00:24:33;;;;;;;;;3.67;1.00;;;;;15.77;100.00;99430.94;4969978;28;47679;-66
2023/10/28 00:26:58;;;;;;;;;1.00;1.00;;;;;15.80;100.00;99431.69;4972309;28;45424;-68
2023/10/28 00:29:24;;;;;;;;;3.00;1.00;;;;;15.80;100.00;99431.69;4971726;28;45446;-68
2023/10/28 00:31:50;;;;;;;;;3.00;2.00;;;;;15.80;100.00;99431.69;4961832;28;66267;-68
2023/10/28 00:34:17;;;;;;;;;2.00;0.00;;;;;15.82;100.00;99426.31;4971607;28;47393;-66
2023/10/28 00:36:42;;;;;;;;;2.67;0.00;;;;;15.81;100.00;99428.09;4969008;28;45496;-67
2023/10/28 00:39:08;;;;;;;;;3.67;1.00;;;;;15.83;100.00;99428.06;4972107;28;45515;-67
2023/10/28 00:41:34;;;;;;;;;3.67;1.33;;;;;15.85;100.00;99434.22;4969535;28;45499;-66
2023/10/28 00:43:59;;;;;;;;;5.33;2.33;;;;;15.84;100.00;99436.00;4968264;28;45829;-67
2023/10/28 00:46:25;;;;;;;;;5.33;1.00;;;;;15.85;100.00;99426.22;4974870;28;67282;-66
2023/10/28 00:48:52;;;;;;;;;3.00;0.33;;;;;15.83;100.00;99412.09;4974724;28;45477;-66
2023/10/28 00:51:19;;;;;;;;;5.00;2.00;;;;;15.82;100.00;99423.66;4974522;28;45534;-66
2023/10/28 00:53:44;;;;;;;;;1.00;1.00;;;;;15.85;100.00;99407.59;4970061;28;46204;-68
2023/10/28 00:56:11;;;;;;;;;4.00;1.00;;;;;15.82;100.00;99413.00;4968530;28;72215;-65
2023/10/28 00:58:39;;;;;;;;;3.67;1.67;;;;;15.81;100.00;99405.94;4971497;28;45564;-67
2023/10/28 01:01:06;;;;;;;;;2.67;1.00;;;;;15.80;100.00;99413.06;4990728;28;45382;-66
2023/10/28 01:03:31;;;;;;;;;1.67;1.00;;;;;15.81;100.00;99405.94;4974104;28;45970;-66
2023/10/28 01:05:57;;;;;;;;;1.67;1.67;;;;;15.78;100.00;99393.63;4972756;28;69277;-66
2023/10/28 01:08:22;;;;;;;;;3.33;1.00;;;;;15.79;100.00;99402.47;4973371;28;45490;-67
2023/10/28 01:10:48;;;;;;;;;2.00;0.00;;;;;15.80;100.00;99402.41;4973956;28;66224;-65
2023/10/28 01:13:13;;;;;;;;;5.00;0.67;;;;;15.78;100.00;99390.09;4975207;28;47240;-65
2023/10/28 01:15:39;;;;;;;;;3.00;1.67;;;;;15.73;100.00;99384.94;4977265;28;45498;-66
2023/10/28 01:18:05;;;;;;;;;4.00;1.33;;;;;15.72;100.00;99383.19;4971343;28;45519;-68
2023/10/28 01:20:31;;;;;;;;;3.00;1.67;;;;;15.75;100.00;99383.06;4978325;28;45562;-65
2023/10/28 01:22:58;;;;;;;;;7.67;1.00;;;;;15.79;100.00;99391.84;4966893;28;46446;-67
2023/10/28 01:25:24;;;;;;;;;2.67;1.00;;;;;15.81;100.00;99390.84;4975505;28;45625;-66
2023/10/28 01:27:49;;;;;;;;;3.33;2.00;;;;;15.77;100.00;99391.03;4975559;28;45363;-66
2023/10/28 01:30:15;;;;;;;;;6.67;1.00;;;;;15.75;100.00;99384.88;4971773;28;45684;-66
2023/10/28 01:32:41;;;;;;;;;5.00;1.00;;;;;15.77;100.00;99386.56;4974751;28;45868;-66
2023/10/28 01:35:09;;;;;;;;;3.67;1.00;;;;;15.77;100.00;99383.03;4974294;28;45413;-66
2023/10/28 01:37:35;;;;;;;;;2.00;1.00;;;;;15.76;100.00;99378.63;4976679;28;45344;-65
2023/10/28 01:40:00;;;;;;;;;1.33;1.00;;;;;15.79;100.00;99383.84;4969965;28;49097;-65
2023/10/28 01:42:26;;;;;;;;;2.67;1.00;;;;;15.79;100.00;99389.16;4974374;28;46084;-65
2023/10/28 01:44:51;;;;;;;;;5.33;2.00;;;;;15.64;100.00;99387.88;4977076;28;69139;-68
2023/10/28 01:47:16;;;;;;;;;4.67;2.00;;;;;15.56;100.00;99392.56;4971714;28;65740;-65
2023/10/28 01:49:42;;;;;;;;;1.00;1.00;;;;;15.52;100.00;99389.13;4969882;28;45261;-66
2023/10/28 01:52:08;;;;;;;;;1.67;1.00;;;;;15.52;100.00;99385.59;4971337;28;46463;-67
2023/10/28 01:54:35;;;;;;;;;0.00;0.00;;;;;15.53;100.00;99390.84;4968968;28;45493;-66
2023/10/28 01:57:02;;;;;;;;;2.00;0.33;;;;;15.53;100.00;99395.31;4969846;28;45427;-66
2023/10/28 01:59:27;;;;;;;;;2.00;1.00;;;;;15.50;100.00;99390.06;4973345;28;45511;-66
2023/10/28 02:01:53;;;;;;;;;4.00;1.00;;;;;15.46;100.00;99387.53;4972395;28;46695;-66
2023/10/28 02:04:18;;;;;;;;;3.00;0.00;;;;;15.45;100.00;99395.56;4974793;28;45459;-65
2023/10/28 02:06:44;;;;;;;;;4.67;1.00;;;;;15.44;100.00;99385.81;4972017;28;64467;-66
2023/10/28 02:09:10;;;;;;;;;7.00;1.00;;;;;15.43;100.00;99384.97;4986616;28;45476;-65
2023/10/28 02:11:39;;;;;;;;;1.67;1.67;;;;;15.42;100.00;99377.03;4977489;28;45509;-66
2023/10/28 02:14:05;;;;;;;;;2.00;0.00;;;;;15.41;100.00;99377.97;4976172;28;45650;-65
2023/10/28 02:16:30;;;;;;;;;2.33;1.00;;;;;15.42;100.00;99377.03;4975877;28;45418;-66
2023/10/28 02:18:55;;;;;;;;;4.00;1.00;;;;;15.45;100.00;99377.81;4977379;28;45328;-66
2023/10/28 02:21:21;;;;;;;;;3.33;1.00;;;;;15.72;100.00;99383.19;4972019;28;47150;-65
2023/10/28 02:23:46;;;;;;;;;2.33;1.00;;;;;15.72;100.00;99369.88;4968683;28;67220;-66
2023/10/28 02:26:11;;;;;;;;;0.00;0.00;;;;;15.74;100.00;99362.72;4971115;28;67111;-67
2023/10/28 02:28:37;;;;;;;;;2.00;0.00;;;;;15.73;100.00;99368.09;4975216;28;61218;-66
2023/10/28 02:31:02;;;;;;;;;5.00;1.00;;;;;15.71;100.00;99363.69;4974524;28;74202;-67
2023/10/28 02:33:27;;;;;;;;;2.67;0.00;;;;;15.70;100.00;99361.06;4975884;28;45565;-66
2023/10/28 02:35:53;;;;;;;;;1.67;1.00;;;;;15.59;100.00;99358.72;4975413;28;68341;-68
2023/10/28 02:38:19;;;;;;;;;1.00;1.00;;;;;15.53;100.00;99352.75;4974193;28;64777;-66
2023/10/28 02:40:46;;;;;;;;;1.00;1.00;;;;;15.50;100.00;99348.41;4957358;28;47473;-66
2023/10/28 02:43:11;;;;;;;;;1.00;1.00;;;;;15.52;100.00;99345.69;4969103;28;45534;-67
2023/10/28 02:45:37;;;;;;;;;2.00;1.00;;;;;15.54;100.00;99344.69;4974786;28;45288;-66
2023/10/28 02:48:02;;;;;;;;;3.00;1.00;;;;;15.56;100.00;99339.34;4969017;28;59417;-65
2023/10/28 02:50:28;;;;;;;;;4.00;1.00;;;;;15.61;100.00;99350.72;4989406;28;48234;-66
2023/10/28 02:52:53;;;;;;;;;4.67;1.00;;;;;15.58;100.00;99346.34;4976180;28;45496;-65
2023/10/28 02:55:19;;;;;;;;;3.00;0.00;;;;;15.59;100.00;99344.56;4972037;28;66382;-66
2023/10/28 02:57:44;;;;;;;;;2.00;0.00;;;;;15.56;100.00;99337.56;4972555;28;46344;-68
2023/10/28 03:00:11;;;;;;;;;1.00;1.00;;;;;15.55;100.00;99334.94;4975077;28;69278;-66
2023/10/28 03:02:36;;;;;;;;;2.33;0.33;;;;;15.54;100.00;99338.50;4973286;28;45343;-65
2023/10/28 03:05:04;;;;;;;;;1.00;1.00;;;;;15.53;100.00;99358.94;4972764;28;45996;-65
2023/10/28 03:07:30;;;;;;;;;0.00;0.00;;;;;15.72;100.00;99337.94;4969409;28;45438;-67
2023/10/28 03:09:55;;;;;;;;;2.33;0.00;;;;;15.69;100.00;99351.34;4972632;28;76430;-67
2023/10/28 03:12:20;;;;;;;;;2.00;0.00;;;;;15.64;100.00;99346.16;4973970;28;60781;-68
2023/10/28 03:14:46;;;;;;;;;2.00;0.00;;;;;15.61;100.00;99350.72;4971549;28;68223;-66
2023/10/28 03:17:11;;;;;;;;;0.00;0.00;;;;;15.59;100.00;99352.53;4970914;28;66709;-66
2023/10/28 03:19:36;;;;;;;;;2.00;0.00;;;;;15.56;100.00;99347.34;4972733;28;73430;-67
2023/10/28 03:22:02;;;;;;;;;0.00;0.00;;;;;15.52;100.00;99349.22;4971827;28;61700;-66
2023/10/28 03:24:28;;;;;;;;;1.67;0.00;;;;;15.51;100.00;99366.09;4967319;28;69387;-66
2023/10/28 03:26:54;;;;;;;;;2.67;0.33;;;;;15.52;100.00;99375.81;4967362;28;45530;-66
2023/10/28 03:29:19;;;;;;;;;3.33;1.00;;;;;15.50;100.00;99372.34;4975356;28;45529;-66
2023/10/28 03:31:44;;;;;;;;;2.00;0.00;;;;;15.53;100.00;99372.22;4972546;28;74397;-65
2023/10/28 03:34:10;;;;;;;;;1.67;1.00;;;;;15.53;100.00;99366.91;4967830;28;65309;-66
2023/10/28 03:36:35;;;;;;;;;2.00;1.00;;;;;15.51;100.00;99370.56;4963949;28;45308;-66
2023/10/28 03:39:00;;;;;;;;;2.67;0.00;;;;;15.54;100.00;99370.44;4973727;28;47293;-66
2023/10/28 03:41:26;;;;;;;;;2.00;0.00;;;;;15.46;100.00;99373.38;4974495;28;45424;-65
2023/10/28 03:43:51;;;;;;;;;1.67;0.00;;;;;15.51;100.00;99370.56;4968686;28;58524;-67
2023/10/28 03:46:25;;;;;;;;;1.33;0.67;;;;;15.49;100.00;99375.03;4967736;28;66347;-66
2023/10/28 03:48:50;;;;;;;;;0.00;0.00;;;;;15.50;100.00;99380.34;4973324;28;45683;-66
2023/10/28 03:51:15;;;;;;;;;2.00;0.67;;;;;15.58;100.00;99378.28;4976272;28;45372;-66
2023/10/28 03:53:41;;;;;;;;;3.00;0.00;;;;;15.52;100.00;99381.13;4971085;28;45403;-68
2023/10/28 03:56:07;;;;;;;;;2.00;0.00;;;;;15.52;100.00;99377.63;4972326;28;45300;-68
2023/10/28 03:58:32;;;;;;;;;0.33;0.33;;;;;15.51;100.00;99376.75;4970052;28;45455;-66
2023/10/28 04:00:59;;;;;;;;;1.33;0.00;;;;;15.54;100.00;99378.41;4967358;28;45407;-66
2023/10/28 04:03:24;;;;;;;;;2.67;0.67;;;;;15.49;100.00;99370.59;4984904;28;68811;-66
2023/10/28 04:05:50;;;;;;;;;0.67;0.00;;;;;15.48;100.00;99373.31;4973150;28;45611;-66
2023/10/28 04:08:15;;;;;;;;;5.00;1.00;;;;;15.45;100.00;99377.81;4986536;28;46532;-66
2023/10/28 04:10:41;;;;;;;;;0.00;0.00;;;;;15.44;100.00;99388.47;4985100;28;58080;-67
2023/10/28 04:13:07;;;;;;;;;3.00;0.00;;;;;15.42;100.00;99388.53;4973879;28;45411;-67
2023/10/28 04:15:32;;;;;;;;;3.33;0.00;;;;;15.43;100.00;99389.41;4966624;28;45479;-65
2023/10/28 04:17:57;;;;;;;;;1.00;1.00;;;;;15.39;100.00;99386.00;4968074;28;46861;-68
2023/10/28 04:20:23;;;;;;;;;0.00;0.00;;;;;15.37;100.00;99390.47;4967284;28;74094;-66
2023/10/28 04:22:49;;;;;;;;;3.00;0.00;;;;;15.42;100.00;99398.31;4967504;28;63528;-65
2023/10/28 04:25:14;;;;;;;;;1.67;0.00;;;;;15.45;100.00;99395.56;4968685;28;45466;-68
2023/10/28 04:27:40;;;;;;;;;0.00;0.00;;;;;15.49;100.00;99407.81;4976377;28;46350;-67
2023/10/28 04:30:07;;;;;;;;;3.00;0.33;;;;;15.53;100.00;99403.28;4976773;28;45505;-67
2023/10/28 04:32:32;;;;;;;;;2.67;1.00;;;;;15.53;100.00;99405.94;4968156;28;45450;-68
2023/10/28 04:34:58;;;;;;;;;0.00;0.00;;;;;15.53;100.00;99393.50;4975557;28;45618;-65
2023/10/28 04:37:24;;;;;;;;;3.67;0.67;;;;;15.58;100.00;99401.34;4970436;28;76321;-66
2023/10/28 04:39:51;;;;;;;;;1.33;0.00;;;;;15.58;100.00;99407.53;4976234;28;45374;-66
2023/10/28 04:42:16;;;;;;;;;2.67;1.00;;;;;15.57;100.00;99413.78;4975982;28;45440;-66
2023/10/28 04:44:43;;;;;;;;;2.00;1.00;;;;;15.61;100.00;99422.56;4970794;28;45507;-66
2023/10/28 04:47:08;;;;;;;;;2.00;0.33;;;;;15.60;100.00;99426.97;4973931;28;46558;-66
2023/10/28 04:49:34;;;;;;;;;1.67;1.00;;;;;15.60;100.00;99421.66;4975884;28;45437;-67
2023/10/28 04:51:59;;;;;;;;;4.00;1.00;;;;;15.61;100.00;99411.91;4973084;28;45422;-66
2023/10/28 04:54:24;;;;;;;;;0.00;0.00;;;;;15.61;100.00;99407.47;4975099;28;45676;-68
2023/10/28 04:56:50;;;;;;;;;2.67;1.00;;;;;15.60;100.00;99403.03;4977983;28;73691;-66
2023/10/28 04:59:15;;;;;;;;;1.00;1.00;;;;;15.62;100.00;99405.66;4973056;28;45530;-66
2023/10/28 05:01:41;;;;;;;;;3.00;1.00;;;;;15.66;100.00;99404.69;4974349;28;45480;-66
2023/10/28 05:04:08;;;;;;;;;0.00;0.00;;;;;15.67;100.00;99404.63;4972190;28;45406;-66
2023/10/28 05:06:33;;;;;;;;;2.33;0.33;;;;;15.67;100.00;99409.94;4973373;28;46187;-66
2023/10/28 05:08:59;;;;;;;;;1.67;1.00;;;;;15.68;100.00;99414.34;4978503;28;45443;-66
2023/10/28 05:11:25;;;;;;;;;1.33;1.00;;;;;15.71;100.00;99416.91;4974976;28;45687;-66
2023/10/28 05:13:50;;;;;;;;;0.00;0.00;;;;;15.73;100.00;99416.84;4971159;28;45523;-66
2023/10/28 05:16:18;;;;;;;;;2.33;1.00;;;;;15.71;100.00;99422.25;4969055;28;46344;-67
2023/10/28 05:18:45;;;;;;;;;3.33;1.00;;;;;15.77;100.00;99422.97;4978351;28;45428;-66
2023/10/28 05:21:11;;;;;;;;;1.00;1.00;;;;;15.75;100.00;99416.78;4971239;28;45466;-66
2023/10/28 05:23:37;;;;;;;;;3.33;0.67;;;;;15.71;100.00;99408.94;4967431;28;45584;-66
2023/10/28 05:26:04;;;;;;;;;2.33;0.00;;;;;15.75;100.00;99406.16;4967597;28;46124;-67
2023/10/28 05:28:30;;;;;;;;;5.67;1.00;;;;;15.74;100.00;99415.94;4977809;28;45370;-66
2023/10/28 05:30:55;;;;;;;;;4.00;1.00;;;;;15.75;100.00;99409.69;4967049;28;45401;-66
2023/10/28 05:33:20;;;;;;;;;6.00;0.00;;;;;15.76;100.00;99411.41;4967492;28;45465;-66
2023/10/28 05:35:46;;;;;;;;;0.67;0.67;;;;;15.73;100.00;99419.53;4976607;28;45763;-66
2023/10/28 05:38:12;;;;;;;;;2.67;1.33;;;;;15.75;100.00;99417.66;4971940;28;45996;-67
2023/10/28 05:40:37;;;;;;;;;2.33;1.00;;;;;15.75;100.00;99420.31;4974019;28;45542;-68
2023/10/28 05:43:03;;;;;;;;;1.00;1.00;;;;;15.80;100.00;99423.72;4968361;28;45557;-66
2023/10/28 05:45:28;;;;;;;;;1.67;1.67;;;;;15.81;100.00;99424.56;4974305;28;47706;-66
2023/10/28 05:47:54;;;;;;;;;2.00;1.00;;;;;15.80;100.00;99421.03;4967399;28;45459;-66
2023/10/28 05:50:19;;;;;;;;;4.00;1.67;;;;;15.82;100.00;99423.66;4978409;28;45632;-66
2023/10/28 05:52:44;;;;;;;;;1.00;1.00;;;;;15.82;100.00;99423.66;4967479;28;45766;-66
2023/10/28 05:55:12;;;;;;;;;1.67;1.00;;;;;15.82;100.00;99423.66;4974934;28;45905;-66
2023/10/28 05:57:38;;;;;;;;;1.33;1.00;;;;;15.84;100.00;99437.78;4971961;28;45395;-66
2023/10/28 06:00:09;;;;;;;;;7.33;1.00;;;;;15.83;100.00;99433.41;4972260;28;45398;-65
2023/10/28 06:02:35;;;;;;;;;3.00;2.00;;;;;15.63;100.00;99429.59;4974718;28;45517;-66
2023/10/28 06:05:03;;;;;;;;;1.00;1.00;;;;;15.80;100.00;99431.69;4975591;28;45463;-66
2023/10/28 06:07:29;;;;;;;;;1.00;1.00;;;;;15.86;100.00;99434.16;4975708;28;45538;-65
2023/10/28 06:09:54;;;;;;;;;3.00;1.00;;;;;15.87;100.00;99435.91;4971686;28;45188;-66
2023/10/28 06:12:20;;;;;;;;;4.00;1.00;;;;;15.86;100.00;99431.50;4969388;28;65672;-66
2023/10/28 06:14:45;;;;;;;;;3.00;1.00;;;;;15.87;100.00;99427.03;4971863;28;45953;-66
2023/10/28 06:17:10;;;;;;;;;3.67;1.00;;;;;15.92;100.00;99435.75;4968381;28;45226;-67
2023/10/28 06:19:36;;;;;;;;;3.00;1.33;;;;;15.89;100.00;99434.06;4976093;28;60321;-66
2023/10/28 06:22:01;;;;;;;;;1.67;1.67;;;;;15.98;100.00;99446.22;4971835;28;63483;-67
2023/10/28 06:24:28;;;;;;;;;1.00;1.00;;;;;15.96;100.00;99434.72;4961141;28;68312;-66
2023/10/28 06:26:54;;;;;;;;;2.33;0.00;;;;;15.95;100.00;99439.19;4964663;28;45389;-66
2023/10/28 06:29:20;;;;;;;;;4.00;1.00;;;;;15.94;100.00;99426.78;4965484;28;45466;-66
2023/10/28 06:31:46;;;;;;;;;2.33;0.00;;;;;15.97;100.00;99444.44;5120560;22;45624;-65
2023/10/28 06:34:12;;;;;;;;;3.00;1.33;;;;;15.98;100.00;99451.53;4971595;28;47249;-66
2023/10/28 06:36:37;;;;;;;;;4.33;1.33;;;;;16.02;100.00;99453.16;4976376;28;45420;-66
2023/10/28 06:39:03;;;;;;;;;0.67;0.00;;;;;16.01;100.00;99451.41;4976233;28;45550;-67
2023/10/28 06:41:28;;;;;;;;;1.00;1.00;;;;;16.01;100.00;99451.41;4970845;28;45471;-65
2023/10/28 06:43:53;;;;;;;;;2.67;1.00;;;;;16.05;100.00;99455.72;4957285;28;71034;-66
2023/10/28 06:46:19;;;;;;;;;5.67;2.00;;;;;16.05;100.00;99452.19;4975845;28;45443;-67
2023/10/28 06:48:46;;;;;;;;;2.00;1.00;;;;;16.06;100.00;99456.59;4976593;28;45824;-64
2023/10/28 06:51:12;;;;;;;;;1.00;1.00;;;;;16.07;100.00;99456.53;4977196;28;45406;-65
2023/10/28 06:53:40;;;;;;;;;4.33;1.00;;;;;16.08;100.00;99452.94;4976017;28;46870;-67
2023/10/28 06:56:07;;;;;;;;;2.67;1.00;;;;;16.08;100.00;99449.41;4976357;28;45399;-66
2023/10/28 06:58:32;;;;;;;;;1.00;1.00;;;;;16.08;100.00;99468.03;4976794;28;45503;-66
2023/10/28 07:00:57;;;;;;;;;2.00;1.00;;;;;16.12;100.00;99456.38;4975319;28;48113;-67
2023/10/28 07:03:23;;;;;;;;;0.00;0.00;;;;;16.12;100.00;99464.38;4975147;28;46801;-66
2023/10/28 07:05:48;;;;;;;;;4.00;1.00;;;;;16.12;100.00;99457.25;4975388;28;67971;-68
2023/10/28 07:08:15;;;;;;;;;2.00;1.00;;;;;16.10;100.00;99472.41;4971297;28;45518;-66
2023/10/28 07:10:40;;;;;;;;;4.33;1.33;;;;;16.11;100.00;99468.81;4969631;28;45627;-65
2023/10/28 07:13:05;;;;;;;;;1.00;1.00;;;;;16.13;100.00;99471.44;4975686;28;46561;-66
2023/10/28 07:15:31;;;;;;;;;2.67;1.33;;;;;16.15;100.00;99472.28;4976556;28;45293;-68
2023/10/28 07:17:58;;;;;;;;;1.33;1.33;;;;;16.15;100.00;99480.25;4975454;28;45320;-66
2023/10/28 07:20:23;;;;;;;;;3.67;1.00;;;;;16.18;100.00;99470.34;4976874;28;45371;-67
2023/10/28 07:22:49;;;;;;;;;3.00;1.00;;;;;16.23;100.00;99470.19;4975521;28;46287;-68
2023/10/28 07:25:14;;;;;;;;;5.33;0.33;;;;;16.24;100.00;99486.16;4976569;28;45559;-66
2023/10/28 07:27:40;;;;;;;;;8.33;1.00;;;;;16.26;100.00;99495.88;4976544;28;45478;-68
2023/10/28 07:30:06;;;;;;;;;1.00;1.00;;;;;16.28;100.00;99478.91;4974945;28;59595;-64
2023/10/28 07:32:31;;;;;;;;;2.00;1.00;;;;;16.28;100.00;99486.03;4975489;28;46662;-68
2023/10/28 07:34:57;;;;;;;;;0.00;0.00;;;;;16.32;100.00;99504.53;4959022;28;45604;-66
2023/10/28 07:37:23;;;;;;;;;2.00;0.67;;;;;16.28;100.00;99502.88;4955703;28;45385;-66
2023/10/28 07:39:49;;;;;;;;;0.00;0.00;;;;;16.26;100.00;99510.06;4974386;28;45472;-66
2023/10/28 07:42:15;;;;;;;;;2.00;1.00;;;;;16.22;100.00;99501.28;4975389;28;46464;-67
2023/10/28 07:44:41;;;;;;;;;1.00;1.00;;;;;16.25;100.00;99524.31;4976119;28;45415;-66
2023/10/28 07:47:08;;;;;;;;;4.00;0.00;;;;;16.27;100.00;99526.91;4976010;28;45569;-68
2023/10/28 07:49:33;;;;;;;;;5.00;1.00;;;;;16.27;100.00;99516.25;4974101;28;45638;-68
2023/10/28 07:51:58;;;;;;;;;4.33;0.00;;;;;16.24;100.00;99515.44;4975282;28;45611;-68
2023/10/28 07:54:24;;;;;;;;;2.00;0.00;;;;;16.24;100.00;99526.09;4974726;28;58712;-68
2023/10/28 07:56:51;;;;;;;;;1.00;1.00;;;;;16.32;100.00;99533.81;4975017;28;45392;-67
2023/10/28 07:59:16;;;;;;;;;4.67;0.00;;;;;16.29;100.00;99541.03;4975275;28;45625;-68
2023/10/28 08:01:42;;;;;;;;;5.00;1.00;;;;;16.24;100.00;99528.75;4973817;28;46475;-68
2023/10/28 08:04:07;;;;;;;;;0.67;0.67;;;;;16.18;100.00;99538.72;4955504;28;70732;-69
2023/10/28 08:06:33;;;;;;;;;1.33;0.33;;;;;16.17;100.00;99544.97;4974688;28;45422;-67
2023/10/28 08:08:58;;;;;;;;;2.00;2.00;;;;;16.15;100.00;99542.38;4974721;28;45373;-68
2023/10/28 08:11:24;;;;;;;;;1.00;1.00;;;;;16.22;100.00;99551.03;4974165;28;45813;-69
2023/10/28 08:13:53;;;;;;;;;3.00;0.00;;;;;16.21;100.00;99547.50;4974051;28;45312;-70
2023/10/28 08:16:20;;;;;;;;;2.00;0.00;;;;;16.16;100.00;99538.78;4959131;28;45305;-68
2023/10/28 08:18:46;;;;;;;;;1.00;1.00;;;;;16.13;100.00;99538.88;4974912;28;45721;-69
2023/10/28 08:21:14;;;;;;;;;1.33;1.33;;;;;16.09;100.00;99547.91;4975390;28;45829;-68
2023/10/28 08:23:39;;;;;;;;;4.67;1.33;;;;;16.07;100.00;99541.72;4974059;28;45443;-69
2023/10/28 08:26:08;;;;;;;;;2.33;1.00;;;;;16.07;100.00;99539.06;4967263;28;45467;-68
2023/10/28 08:28:33;;;;;;;;;3.00;0.00;;;;;16.06;100.00;99541.78;4951948;28;45509;-69
2023/10/28 08:30:58;;;;;;;;;0.67;0.67;;;;;16.07;100.00;99540.88;4963664;28;75863;-69
2023/10/28 08:33:25;;;;;;;;;2.00;2.00;;;;;16.10;100.00;99536.31;4963524;28;45562;-69
2023/10/28 08:35:51;;;;;;;;;2.00;2.00;;;;;16.10;100.00;99541.66;4962565;28;45489;-68
2023/10/28 08:38:17;;;;;;;;;3.67;1.00;;;;;16.06;100.00;99537.34;4963328;28;45696;-68
2023/10/28 08:40:46;;;;;;;;;1.00;1.00;;;;;16.01;100.00;99539.28;4965424;28;46864;-68
2023/10/28 08:43:16;;;;;;;;;1.00;1.00;;;;;16.01;100.00;99528.63;4949439;28;45473;-70
2023/10/28 08:45:42;;;;;;;;;2.67;1.67;;;;;15.97;100.00;99514.53;4965399;28;45472;-69
2023/10/28 08:48:10;;;;;;;;;2.67;1.00;;;;;15.95;100.00;99505.72;4967324;28;45636;-68
2023/10/28 08:50:38;;;;;;;;;2.00;1.00;;;;;16.00;100.00;99515.38;4974916;28;46668;-67
2023/10/28 08:53:03;;;;;;;;;1.00;1.00;;;;;16.01;100.00;99515.31;4974565;28;45506;-70
2023/10/28 08:55:30;;;;;;;;;0.67;0.33;;;;;16.11;100.00;99505.25;4956186;28;69716;-68
2023/10/28 08:58:06;;;;;;;;;3.00;0.00;;;;;16.03;100.00;99502.81;4956427;28;45546;-68
2023/10/28 09:00:34;;;;;;;;;1.00;1.00;;;;;15.99;100.00;99493.19;4973461;28;45987;-68
2023/10/28 09:03:01;;;;;;;;;3.00;0.33;;;;;15.98;100.00;99502.13;4951844;28;45360;-68
2023/10/28 09:05:26;;;;;;;;;2.00;2.00;;;;;16.02;100.00;99501.06;4956039;28;45906;-68
2023/10/28 09:07:52;;;;;;;;;3.67;0.67;;;;;16.07;100.00;99496.47;4975826;28;45485;-68
2023/10/28 09:10:17;;;;;;;;;2.00;0.00;;;;;16.13;100.00;99495.41;4977969;28;51940;-68
2023/10/28 09:12:44;;;;;;;;;4.67;1.00;;;;;16.17;100.00;99495.25;4982084;28;45327;-68
2023/10/28 09:15:09;;;;;;;;;2.00;0.00;;;;;16.14;100.00;99492.69;4978348;28;45479;-68
2023/10/28 09:17:35;;;;;;;;;0.33;0.33;;;;;16.12;100.00;99486.53;4979251;28;45397;-68
2023/10/28 09:20:01;;;;;;;;;2.00;0.00;;;;;16.17;100.00;99491.72;4978036;28;46274;-69
2023/10/28 09:22:26;;;;;;;;;1.00;1.00;;;;;16.17;100.00;99476.59;4979086;28;45410;-68
2023/10/28 09:24:55;;;;;;;;;2.00;1.00;;;;;16.22;100.00;99474.66;4978055;28;45692;-68
2023/10/28 09:27:21;;;;;;;;;1.00;1.00;;;;;16.28;100.00;99473.56;4978981;28;45357;-70
2023/10/28 09:29:46;;;;;;;;;4.33;0.00;;;;;16.36;100.00;99476.00;4943501;28;47054;-67
2023/10/28 09:32:13;;;;;;;;;1.33;0.00;;;;;16.37;100.00;99475.06;4965724;28;45430;-70
2023/10/28 09:34:40;;;;;;;;;1.33;0.00;;;;;16.34;100.00;99480.50;4957325;28;45497;-69
2023/10/28 09:37:06;;;;;;;;;1.00;1.00;;;;;16.35;100.00;99477.78;4978346;28;45494;-68
2023/10/28 09:39:36;;;;;;;;;0.00;0.00;;;;;16.38;100.00;99477.66;4960349;28;46651;-68
2023/10/28 09:42:04;;;;;;;;;0.00;0.00;;;;;16.44;100.00;99473.94;4977730;28;45542;-69
2023/10/28 09:44:30;;;;;;;;;0.00;0.00;;;;;16.54;100.00;99480.69;4977668;28;45431;-68
2023/10/28 09:47:01;;;;;;;;;0.00;0.00;;;;;16.63;100.00;99477.69;4978112;28;45403;-68
2023/10/28 09:49:30;;;;;;;;;2.33;0.00;;;;;16.74;100.00;99469.34;4977631;28;46859;-68
2023/10/28 09:52:00;;;;;;;;;3.00;0.00;;;;;16.82;100.00;99464.59;4975335;28;45598;-67
2023/10/28 09:54:29;;;;;;;;;2.33;0.00;;;;;16.89;100.00;99463.47;4975007;28;45356;-69
2023/10/28 09:56:57;;;;;;;;;0.00;0.00;;;;;16.93;100.00;99450.88;4977287;28;45450;-66
2023/10/28 09:59:24;;;;;;;;;0.00;0.00;;;;;16.99;100.00;99447.97;4975485;28;46893;-67
2023/10/28 10:02:01;;;;;;;;;2.00;0.00;;;;;17.02;100.00;99445.19;4956556;28;71201;-68
2023/10/28 10:04:36;;;;;;;;;0.00;0.00;;;;;17.32;100.00;99447.66;4970704;28;45827;-68
2023/10/28 10:07:01;;;;;;;;;1.33;0.00;;;;;17.36;100.00;99452.78;4960491;28;45312;-67
2023/10/28 10:09:27;;;;;;;;;0.00;0.00;;;;;17.41;100.00;99455.25;4973683;28;47736;-67
2023/10/28 10:11:54;;;;;;;;;1.00;1.00;;;;;17.38;100.00;99450.06;4974999;28;72871;-67
2023/10/28 10:14:21;;;;;;;;;0.67;0.67;;;;;17.39;100.00;99451.81;4956705;28;45470;-69
2023/10/28 10:17:02;;;;;;;;;0.00;0.00;;;;;17.44;100.00;99456.03;4958552;28;45440;-69
2023/10/28 10:19:34;;;;;;;;;0.00;0.00;;;;;17.51;100.00;99448.66;4974229;28;46022;-67
2023/10/28 10:22:03;;;;;;;;;2.00;1.00;;;;;17.60;100.00;99464.31;4957829;28;45530;-67
2023/10/28 10:24:28;;;;;;;;;3.67;0.00;;;;;17.71;100.00;99475.41;4959095;28;45364;-68
2023/10/28 10:26:59;;;;;;;;;1.67;1.00;;;;;17.74;100.00;99493.16;4974821;28;49258;-67
2023/10/28 10:29:26;;;;;;;;;0.00;0.00;;;;;17.74;100.00;99490.50;4958039;28;47627;-67
2023/10/28 10:31:52;;;;;;;;;2.00;1.00;;;;;17.74;100.00;99501.19;4963184;28;45985;-68
2023/10/28 10:34:43;;;;;;;;;0.67;0.67;;;;;17.70;100.00;99513.72;4976972;28;45483;-69
2023/10/28 10:37:25;;;;;;;;;2.00;1.00;;;;;17.66;100.00;99529.91;4959195;28;45635;-67
2023/10/28 10:39:57;;;;;;;;;2.33;1.00;;;;;17.64;100.00;99534.47;4976306;28;45676;-66
2023/10/28 10:42:25;;;;;;;;;1.00;1.00;;;;;17.57;100.00;99522.25;4957317;28;45569;-70
2023/10/28 10:44:52;;;;;;;;;2.00;1.00;;;;;17.55;100.00;99525.88;4967538;28;45498;-69
2023/10/28 10:47:17;;;;;;;;;4.00;1.00;;;;;17.49;100.00;99520.78;4969522;28;58994;-68
2023/10/28 10:49:43;;;;;;;;;0.33;0.33;;;;;17.48;100.00;99518.16;4964389;28;46794;-68
2023/10/28 10:52:13;;;;;;;;;2.00;1.00;;;;;17.45;100.00;99515.59;4960214;28;45297;-69
2023/10/28 10:54:41;;;;;;;;;2.00;0.00;;;;;17.44;100.00;99497.84;4953379;28;45582;-72
2023/10/28 10:57:10;;;;;;;;;1.00;1.00;;;;;17.48;100.00;99483.47;4959785;28;45618;-69
2023/10/28 10:59:38;;;;;;;;;0.00;0.00;;;;;17.51;100.00;99478.00;4960184;28;45957;-70
2023/10/28 11:02:04;;;;;;;;;0.00;0.00;;;;;17.57;100.00;99487.56;4959312;28;62738;-69
2023/10/28 11:04:31;;;;;;;;;1.33;0.00;;;;;17.57;100.00;99469.75;4962981;28;67911;-69
2023/10/28 11:06:57;;;;;;;;;1.67;0.33;;;;;17.59;100.00;99481.25;4969810;28;45448;-69
2023/10/28 11:09:22;;;;;;;;;1.00;0.00;;;;;17.62;100.00;99472.25;4961978;28;47926;-71
2023/10/28 11:11:49;;;;;;;;;1.00;1.00;;;;;17.65;100.00;99478.34;4965788;28;45474;-69
2023/10/28 11:14:14;;;;;;;;;0.33;0.33;;;;;17.67;100.00;99481.81;4958559;28;45473;-69
2023/10/28 11:16:41;;;;;;;;;1.00;1.00;;;;;17.57;100.00;99453.72;4963426;28;45443;-71
2023/10/28 11:19:08;;;;;;;;;2.00;1.00;;;;;17.65;100.00;99469.47;4942459;28;46152;-66